sensor_id;sensor_type;location;lat;lon;timestamp;temperature;humidity
49489;SHT31;35382;51.484;11.476;2022-09-17T00:01:18;10.61;83.65
49489;SHT31;35382;51.484;11.476;2022-09-17T00:02:59;10.54;83.95
49489;SHT31;35382;51.484;11.476;2022-09-17T00:04:41;10.52;84.05
49489;SHT31;35382;51.484;11.476;2022-09-17T00:06:24;10.42;84.31
49489;SHT31;35382;51.484;11.476;2022-09-17T00:08:06;10.44;84.37
49489;SHT31;35382;51.484;11.476;2022-09-17T00:09:47;10.40;84.70
49489;SHT31;35382;51.484;11.476;2022-09-17T00:11:30;10.42;84.72
49489;SHT31;35382;51.484;11.476;2022-09-17T00:13:11;10.50;84.79
49489;SHT31;35382;51.484;11.476;2022-09-17T00:14:52;10.50;84.87
49489;SHT31;35382;51.484;11.476;2022-09-17T00:16:35;10.47;84.93
49489;SHT31;35382;51.484;11.476;2022-09-17T00:18:17;10.40;85.13
49489;SHT31;35382;51.484;11.476;2022-09-17T00:19:58;10.41;85.17
49489;SHT31;35382;51.484;11.476;2022-09-17T00:21:39;10.30;85.62
49489;SHT31;35382;51.484;11.476;2022-09-17T00:23:20;10.28;85.73
49489;SHT31;35382;51.484;11.476;2022-09-17T00:25:02;10.22;85.84
49489;SHT31;35382;51.484;11.476;2022-09-17T00:26:44;10.22;85.97
49489;SHT31;35382;51.484;11.476;2022-09-17T00:28:25;10.18;86.13
49489;SHT31;35382;51.484;11.476;2022-09-17T00:30:06;10.18;86.38
49489;SHT31;35382;51.484;11.476;2022-09-17T00:31:47;10.16;86.56
49489;SHT31;35382;51.484;11.476;2022-09-17T00:33:28;10.18;86.66
49489;SHT31;35382;51.484;11.476;2022-09-17T00:35:09;10.06;86.87
49489;SHT31;35382;51.484;11.476;2022-09-17T00:36:50;10.06;86.93
49489;SHT31;35382;51.484;11.476;2022-09-17T00:38:32;10.01;87.06
49489;SHT31;35382;51.484;11.476;2022-09-17T00:40:13;10.03;86.96
49489;SHT31;35382;51.484;11.476;2022-09-17T00:41:54;9.96;87.24
49489;SHT31;35382;51.484;11.476;2022-09-17T00:43:41;9.97;87.16
49489;SHT31;35382;51.484;11.476;2022-09-17T00:45:22;9.91;87.41
49489;SHT31;35382;51.484;11.476;2022-09-17T00:47:04;9.89;87.46
49489;SHT31;35382;51.484;11.476;2022-09-17T00:48:45;9.94;87.29
49489;SHT31;35382;51.484;11.476;2022-09-17T00:50:29;9.90;87.57
49489;SHT31;35382;51.484;11.476;2022-09-17T00:52:13;9.86;87.79
49489;SHT31;35382;51.484;11.476;2022-09-17T00:53:55;9.82;87.95
49489;SHT31;35382;51.484;11.476;2022-09-17T00:55:39;9.83;88.21
49489;SHT31;35382;51.484;11.476;2022-09-17T00:57:21;9.90;88.20
49489;SHT31;35382;51.484;11.476;2022-09-17T00:59:02;9.79;88.37
49489;SHT31;35382;51.484;11.476;2022-09-17T01:00:44;9.84;88.41
49489;SHT31;35382;51.484;11.476;2022-09-17T01:02:26;9.83;88.44
49489;SHT31;35382;51.484;11.476;2022-09-17T01:04:17;9.84;88.60
49489;SHT31;35382;51.484;11.476;2022-09-17T01:06:13;9.74;88.76
49489;SHT31;35382;51.484;11.476;2022-09-17T01:08:35;9.72;88.93
49489;SHT31;35382;51.484;11.476;2022-09-17T01:10:53;9.70;89.05
49489;SHT31;35382;51.484;11.476;2022-09-17T01:24:14;9.60;89.68
49489;SHT31;35382;51.484;11.476;2022-09-17T01:29:55;9.63;89.77
49489;SHT31;35382;51.484;11.476;2022-09-17T01:31:54;9.67;89.58
49489;SHT31;35382;51.484;11.476;2022-09-17T01:34:00;9.70;89.52
49489;SHT31;35382;51.484;11.476;2022-09-17T01:37:57;9.80;89.48
49489;SHT31;35382;51.484;11.476;2022-09-17T01:40:06;9.84;89.24
49489;SHT31;35382;51.484;11.476;2022-09-17T01:42:24;9.83;89.52
49489;SHT31;35382;51.484;11.476;2022-09-17T01:44:15;9.84;89.41
49489;SHT31;35382;51.484;11.476;2022-09-17T01:46:07;9.87;89.28
49489;SHT31;35382;51.484;11.476;2022-09-17T01:47:52;9.91;89.13
49489;SHT31;35382;51.484;11.476;2022-09-17T01:49:36;9.93;89.02
49489;SHT31;35382;51.484;11.476;2022-09-17T01:51:23;9.94;88.77
49489;SHT31;35382;51.484;11.476;2022-09-17T01:53:06;9.96;89.15
49489;SHT31;35382;51.484;11.476;2022-09-17T01:54:52;10.00;89.14
49489;SHT31;35382;51.484;11.476;2022-09-17T01:57:03;9.96;89.15
49489;SHT31;35382;51.484;11.476;2022-09-17T01:58:51;9.96;89.34
49489;SHT31;35382;51.484;11.476;2022-09-17T02:00:34;9.97;89.57
49489;SHT31;35382;51.484;11.476;2022-09-17T02:02:29;9.97;89.45
49489;SHT31;35382;51.484;11.476;2022-09-17T02:04:19;10.00;89.22
49489;SHT31;35382;51.484;11.476;2022-09-17T02:06:16;10.03;89.02
49489;SHT31;35382;51.484;11.476;2022-09-17T02:08:12;10.03;89.07
49489;SHT31;35382;51.484;11.476;2022-09-17T02:10:01;10.03;89.08
49489;SHT31;35382;51.484;11.476;2022-09-17T02:11:46;10.03;88.97
49489;SHT31;35382;51.484;11.476;2022-09-17T02:13:35;10.03;89.28
49489;SHT31;35382;51.484;11.476;2022-09-17T02:15:22;9.98;89.44
49489;SHT31;35382;51.484;11.476;2022-09-17T02:17:10;10.00;89.25
49489;SHT31;35382;51.484;11.476;2022-09-17T02:18:57;9.98;89.64
49489;SHT31;35382;51.484;11.476;2022-09-17T02:20:45;9.97;89.68
49489;SHT31;35382;51.484;11.476;2022-09-17T02:24:36;9.98;89.84
49489;SHT31;35382;51.484;11.476;2022-09-17T02:26:19;10.03;89.95
49489;SHT31;35382;51.484;11.476;2022-09-17T02:28:04;10.03;89.93
49489;SHT31;35382;51.484;11.476;2022-09-17T02:29:49;10.07;90.02
49489;SHT31;35382;51.484;11.476;2022-09-17T02:31:30;10.03;90.01
49489;SHT31;35382;51.484;11.476;2022-09-17T02:33:13;10.07;90.31
49489;SHT31;35382;51.484;11.476;2022-09-17T02:34:55;10.07;90.43
49489;SHT31;35382;51.484;11.476;2022-09-17T02:36:35;10.04;90.98
49489;SHT31;35382;51.484;11.476;2022-09-17T02:38:27;10.06;91.17
49489;SHT31;35382;51.484;11.476;2022-09-17T02:40:10;10.07;91.07
49489;SHT31;35382;51.484;11.476;2022-09-17T02:42:27;10.01;91.22
49489;SHT31;35382;51.484;11.476;2022-09-17T02:44:51;10.03;91.29
49489;SHT31;35382;51.484;11.476;2022-09-17T02:47:00;10.01;91.78
49489;SHT31;35382;51.484;11.476;2022-09-17T02:48:58;10.00;92.10
49489;SHT31;35382;51.484;11.476;2022-09-17T02:53:05;10.01;92.28
49489;SHT31;35382;51.484;11.476;2022-09-17T02:55:06;9.98;92.11
49489;SHT31;35382;51.484;11.476;2022-09-17T02:57:02;9.97;92.20
49489;SHT31;35382;51.484;11.476;2022-09-17T03:00:28;9.96;92.33
49489;SHT31;35382;51.484;11.476;2022-09-17T03:02:21;10.03;92.31
49489;SHT31;35382;51.484;11.476;2022-09-17T03:04:05;10.04;92.38
49489;SHT31;35382;51.484;11.476;2022-09-17T03:05:48;9.97;92.62
49489;SHT31;35382;51.484;11.476;2022-09-17T03:07:29;9.98;92.86
49489;SHT31;35382;51.484;11.476;2022-09-17T03:09:14;10.01;92.95
49489;SHT31;35382;51.484;11.476;2022-09-17T03:10:55;9.97;92.82
49489;SHT31;35382;51.484;11.476;2022-09-17T03:12:37;9.91;93.09
49489;SHT31;35382;51.484;11.476;2022-09-17T03:14:18;9.97;93.37
49489;SHT31;35382;51.484;11.476;2022-09-17T03:16:03;9.93;93.65
49489;SHT31;35382;51.484;11.476;2022-09-17T03:17:44;9.89;93.66
49489;SHT31;35382;51.484;11.476;2022-09-17T03:19:25;9.94;93.61
49489;SHT31;35382;51.484;11.476;2022-09-17T03:21:07;9.94;93.85
49489;SHT31;35382;51.484;11.476;2022-09-17T03:22:50;9.97;93.74
49489;SHT31;35382;51.484;11.476;2022-09-17T03:24:31;9.94;93.83
49489;SHT31;35382;51.484;11.476;2022-09-17T03:26:12;9.97;94.07
49489;SHT31;35382;51.484;11.476;2022-09-17T03:27:53;9.94;94.02
49489;SHT31;35382;51.484;11.476;2022-09-17T03:29:34;9.91;94.16
49489;SHT31;35382;51.484;11.476;2022-09-17T03:31:14;9.91;94.06
49489;SHT31;35382;51.484;11.476;2022-09-17T03:32:55;9.90;94.29
49489;SHT31;35382;51.484;11.476;2022-09-17T03:34:36;9.90;94.36
49489;SHT31;35382;51.484;11.476;2022-09-17T03:36:17;9.93;94.07
49489;SHT31;35382;51.484;11.476;2022-09-17T03:37:58;9.93;94.14
49489;SHT31;35382;51.484;11.476;2022-09-17T03:39:39;9.94;94.23
49489;SHT31;35382;51.484;11.476;2022-09-17T03:41:20;9.93;94.12
49489;SHT31;35382;51.484;11.476;2022-09-17T03:43:01;9.94;94.01
49489;SHT31;35382;51.484;11.476;2022-09-17T03:44:42;9.97;94.36
49489;SHT31;35382;51.484;11.476;2022-09-17T03:46:23;9.93;94.04
49489;SHT31;35382;51.484;11.476;2022-09-17T03:48:04;9.97;94.10
49489;SHT31;35382;51.484;11.476;2022-09-17T03:49:45;9.94;93.92
49489;SHT31;35382;51.484;11.476;2022-09-17T03:51:26;9.97;94.15
49489;SHT31;35382;51.484;11.476;2022-09-17T03:53:07;9.97;94.29
49489;SHT31;35382;51.484;11.476;2022-09-17T03:54:48;9.96;94.37
49489;SHT31;35382;51.484;11.476;2022-09-17T03:56:29;9.94;94.30
49489;SHT31;35382;51.484;11.476;2022-09-17T03:58:10;9.89;94.33
49489;SHT31;35382;51.484;11.476;2022-09-17T03:59:51;9.89;94.30
49489;SHT31;35382;51.484;11.476;2022-09-17T04:01:32;9.89;94.23
49489;SHT31;35382;51.484;11.476;2022-09-17T04:03:12;9.87;94.24
49489;SHT31;35382;51.484;11.476;2022-09-17T04:04:53;9.84;94.34
49489;SHT31;35382;51.484;11.476;2022-09-17T04:06:34;9.82;94.32
49489;SHT31;35382;51.484;11.476;2022-09-17T04:08:15;9.84;94.27
49489;SHT31;35382;51.484;11.476;2022-09-17T04:09:56;9.77;94.39
49489;SHT31;35382;51.484;11.476;2022-09-17T04:11:37;9.79;94.34
49489;SHT31;35382;51.484;11.476;2022-09-17T04:13:19;9.73;94.43
49489;SHT31;35382;51.484;11.476;2022-09-17T04:15:00;9.70;94.32
49489;SHT31;35382;51.484;11.476;2022-09-17T04:16:41;9.69;94.42
49489;SHT31;35382;51.484;11.476;2022-09-17T04:18:21;9.64;94.49
49489;SHT31;35382;51.484;11.476;2022-09-17T04:20:03;9.70;94.54
49489;SHT31;35382;51.484;11.476;2022-09-17T04:21:45;9.70;94.47
49489;SHT31;35382;51.484;11.476;2022-09-17T04:23:26;9.76;94.54
49489;SHT31;35382;51.484;11.476;2022-09-17T04:25:07;9.73;94.37
49489;SHT31;35382;51.484;11.476;2022-09-17T04:26:48;9.70;94.35
49489;SHT31;35382;51.484;11.476;2022-09-17T04:28:29;9.72;94.38
49489;SHT31;35382;51.484;11.476;2022-09-17T04:30:10;9.73;94.38
49489;SHT31;35382;51.484;11.476;2022-09-17T04:31:51;9.69;94.52
49489;SHT31;35382;51.484;11.476;2022-09-17T04:33:32;9.66;94.42
49489;SHT31;35382;51.484;11.476;2022-09-17T04:35:14;9.62;94.52
49489;SHT31;35382;51.484;11.476;2022-09-17T04:36:55;9.67;94.56
49489;SHT31;35382;51.484;11.476;2022-09-17T04:38:36;9.64;94.60
49489;SHT31;35382;51.484;11.476;2022-09-17T04:40:17;9.64;94.56
49489;SHT31;35382;51.484;11.476;2022-09-17T04:41:58;9.66;94.49
49489;SHT31;35382;51.484;11.476;2022-09-17T04:43:38;9.64;94.54
49489;SHT31;35382;51.484;11.476;2022-09-17T04:45:20;9.66;94.45
49489;SHT31;35382;51.484;11.476;2022-09-17T04:47:01;9.66;94.42
49489;SHT31;35382;51.484;11.476;2022-09-17T04:48:42;9.62;94.38
49489;SHT31;35382;51.484;11.476;2022-09-17T04:50:23;9.54;94.43
49489;SHT31;35382;51.484;11.476;2022-09-17T04:52:04;9.57;94.45
49489;SHT31;35382;51.484;11.476;2022-09-17T04:53:45;9.57;94.64
49489;SHT31;35382;51.484;11.476;2022-09-17T04:55:26;9.63;94.77
49489;SHT31;35382;51.484;11.476;2022-09-17T04:57:07;9.69;94.76
49489;SHT31;35382;51.484;11.476;2022-09-17T04:58:48;9.67;94.81
49489;SHT31;35382;51.484;11.476;2022-09-17T05:00:29;9.69;94.67
49489;SHT31;35382;51.484;11.476;2022-09-17T05:02:10;9.72;94.61
49489;SHT31;35382;51.484;11.476;2022-09-17T05:03:51;9.72;94.52
49489;SHT31;35382;51.484;11.476;2022-09-17T05:05:32;9.70;94.42
49489;SHT31;35382;51.484;11.476;2022-09-17T05:07:13;9.62;94.39
49489;SHT31;35382;51.484;11.476;2022-09-17T05:08:54;9.53;94.53
49489;SHT31;35382;51.484;11.476;2022-09-17T05:10:35;9.59;94.57
49489;SHT31;35382;51.484;11.476;2022-09-17T05:12:16;9.51;94.69
49489;SHT31;35382;51.484;11.476;2022-09-17T05:13:57;9.57;94.90
49489;SHT31;35382;51.484;11.476;2022-09-17T05:15:38;9.60;94.94
49489;SHT31;35382;51.484;11.476;2022-09-17T05:17:19;9.56;94.67
49489;SHT31;35382;51.484;11.476;2022-09-17T05:19:00;9.49;94.69
49489;SHT31;35382;51.484;11.476;2022-09-17T05:20:41;9.47;94.73
49489;SHT31;35382;51.484;11.476;2022-09-17T05:22:22;9.43;94.67
49489;SHT31;35382;51.484;11.476;2022-09-17T05:24:03;9.43;94.80
49489;SHT31;35382;51.484;11.476;2022-09-17T05:25:44;9.49;94.58
49489;SHT31;35382;51.484;11.476;2022-09-17T05:27:25;9.50;94.45
49489;SHT31;35382;51.484;11.476;2022-09-17T05:29:06;9.54;94.31
49489;SHT31;35382;51.484;11.476;2022-09-17T05:30:47;9.54;94.22
49489;SHT31;35382;51.484;11.476;2022-09-17T05:32:28;9.57;94.13
49489;SHT31;35382;51.484;11.476;2022-09-17T05:34:09;9.66;93.83
49489;SHT31;35382;51.484;11.476;2022-09-17T05:35:50;9.70;93.69
49489;SHT31;35382;51.484;11.476;2022-09-17T05:37:31;9.80;93.50
49489;SHT31;35382;51.484;11.476;2022-09-17T05:39:12;9.83;93.43
49489;SHT31;35382;51.484;11.476;2022-09-17T05:40:53;9.90;93.19
49489;SHT31;35382;51.484;11.476;2022-09-17T05:42:34;9.97;92.85
49489;SHT31;35382;51.484;11.476;2022-09-17T05:44:15;10.01;93.02
49489;SHT31;35382;51.484;11.476;2022-09-17T05:46:03;10.03;92.72
49489;SHT31;35382;51.484;11.476;2022-09-17T05:47:44;10.07;92.86
49489;SHT31;35382;51.484;11.476;2022-09-17T05:49:25;10.07;93.12
49489;SHT31;35382;51.484;11.476;2022-09-17T05:51:06;10.07;92.61
49489;SHT31;35382;51.484;11.476;2022-09-17T05:52:47;10.07;93.06
49489;SHT31;35382;51.484;11.476;2022-09-17T05:54:28;10.04;92.62
49489;SHT31;35382;51.484;11.476;2022-09-17T05:56:09;10.08;92.85
49489;SHT31;35382;51.484;11.476;2022-09-17T05:57:50;10.07;92.62
49489;SHT31;35382;51.484;11.476;2022-09-17T05:59:31;10.07;92.28
49489;SHT31;35382;51.484;11.476;2022-09-17T06:01:12;10.01;92.63
49489;SHT31;35382;51.484;11.476;2022-09-17T06:02:56;10.00;92.74
49489;SHT31;35382;51.484;11.476;2022-09-17T06:04:37;9.98;92.52
49489;SHT31;35382;51.484;11.476;2022-09-17T06:06:18;10.03;92.62
49489;SHT31;35382;51.484;11.476;2022-09-17T06:07:59;10.14;92.44
49489;SHT31;35382;51.484;11.476;2022-09-17T06:09:40;10.30;92.75
49489;SHT31;35382;51.484;11.476;2022-09-17T06:11:21;10.42;91.99
49489;SHT31;35382;51.484;11.476;2022-09-17T06:13:02;10.55;92.21
49489;SHT31;35382;51.484;11.476;2022-09-17T06:14:43;10.67;91.81
49489;SHT31;35382;51.484;11.476;2022-09-17T06:16:24;10.75;91.34
49489;SHT31;35382;51.484;11.476;2022-09-17T06:18:05;10.75;91.50
49489;SHT31;35382;51.484;11.476;2022-09-17T06:19:46;10.75;91.31
49489;SHT31;35382;51.484;11.476;2022-09-17T06:21:27;10.69;90.33
49489;SHT31;35382;51.484;11.476;2022-09-17T06:23:08;10.72;89.77
49489;SHT31;35382;51.484;11.476;2022-09-17T06:24:48;10.81;90.23
49489;SHT31;35382;51.484;11.476;2022-09-17T06:26:29;10.85;90.37
49489;SHT31;35382;51.484;11.476;2022-09-17T06:28:10;10.99;89.94
49489;SHT31;35382;51.484;11.476;2022-09-17T06:29:51;10.96;88.75
49489;SHT31;35382;51.484;11.476;2022-09-17T06:31:32;11.09;88.70
49489;SHT31;35382;51.484;11.476;2022-09-17T06:33:14;11.18;88.91
49489;SHT31;35382;51.484;11.476;2022-09-17T06:34:55;11.19;87.58
49489;SHT31;35382;51.484;11.476;2022-09-17T06:36:37;11.20;88.44
49489;SHT31;35382;51.484;11.476;2022-09-17T06:38:17;11.16;86.89
49489;SHT31;35382;51.484;11.476;2022-09-17T06:39:58;11.28;88.05
49489;SHT31;35382;51.484;11.476;2022-09-17T06:41:42;11.25;87.94
49489;SHT31;35382;51.484;11.476;2022-09-17T06:43:24;11.26;87.69
49489;SHT31;35382;51.484;11.476;2022-09-17T06:45:05;11.33;86.70
49489;SHT31;35382;51.484;11.476;2022-09-17T06:46:50;11.42;87.04
49489;SHT31;35382;51.484;11.476;2022-09-17T06:48:33;11.46;87.33
49489;SHT31;35382;51.484;11.476;2022-09-17T06:50:14;11.42;87.12
49489;SHT31;35382;51.484;11.476;2022-09-17T06:51:55;11.32;87.04
49489;SHT31;35382;51.484;11.476;2022-09-17T06:53:36;11.33;86.68
49489;SHT31;35382;51.484;11.476;2022-09-17T06:55:18;11.43;87.35
49489;SHT31;35382;51.484;11.476;2022-09-17T06:56:59;11.49;87.24
49489;SHT31;35382;51.484;11.476;2022-09-17T06:58:40;11.49;86.17
49489;SHT31;35382;51.484;11.476;2022-09-17T07:00:22;11.44;85.85
49489;SHT31;35382;51.484;11.476;2022-09-17T07:02:03;11.66;84.05
49489;SHT31;35382;51.484;11.476;2022-09-17T07:03:44;11.84;83.73
49489;SHT31;35382;51.484;11.476;2022-09-17T07:05:27;12.04;82.90
49489;SHT31;35382;51.484;11.476;2022-09-17T07:07:08;12.24;82.29
49489;SHT31;35382;51.484;11.476;2022-09-17T07:08:50;12.31;81.43
49489;SHT31;35382;51.484;11.476;2022-09-17T07:10:31;12.41;82.11
49489;SHT31;35382;51.484;11.476;2022-09-17T07:12:12;12.34;80.99
49489;SHT31;35382;51.484;11.476;2022-09-17T07:13:53;12.24;80.48
49489;SHT31;35382;51.484;11.476;2022-09-17T07:15:35;12.08;81.79
49489;SHT31;35382;51.484;11.476;2022-09-17T07:17:16;11.89;81.39
49489;SHT31;35382;51.484;11.476;2022-09-17T07:18:57;11.93;82.34
49489;SHT31;35382;51.484;11.476;2022-09-17T07:20:38;12.00;81.72
49489;SHT31;35382;51.484;11.476;2022-09-17T07:22:19;12.18;82.71
49489;SHT31;35382;51.484;11.476;2022-09-17T07:24:00;12.10;81.46
49489;SHT31;35382;51.484;11.476;2022-09-17T07:25:41;12.12;80.19
49489;SHT31;35382;51.484;11.476;2022-09-17T07:27:22;12.03;80.70
49489;SHT31;35382;51.484;11.476;2022-09-17T07:29:03;11.98;78.85
49489;SHT31;35382;51.484;11.476;2022-09-17T07:30:44;11.93;80.27
49489;SHT31;35382;51.484;11.476;2022-09-17T07:32:28;11.93;80.14
49489;SHT31;35382;51.484;11.476;2022-09-17T07:34:09;12.20;80.83
49489;SHT31;35382;51.484;11.476;2022-09-17T07:35:52;12.44;81.79
49489;SHT31;35382;51.484;11.476;2022-09-17T07:37:33;12.20;80.43
49489;SHT31;35382;51.484;11.476;2022-09-17T07:39:14;12.36;82.09
49489;SHT31;35382;51.484;11.476;2022-09-17T07:42:37;12.24;81.10
49489;SHT31;35382;51.484;11.476;2022-09-17T07:44:18;12.13;79.56
49489;SHT31;35382;51.484;11.476;2022-09-17T07:46:01;12.07;79.56
49489;SHT31;35382;51.484;11.476;2022-09-17T07:47:42;11.97;78.16
49489;SHT31;35382;51.484;11.476;2022-09-17T07:49:24;12.08;80.08
49489;SHT31;35382;51.484;11.476;2022-09-17T07:51:05;12.00;79.96
49489;SHT31;35382;51.484;11.476;2022-09-17T07:52:46;12.17;80.59
49489;SHT31;35382;51.484;11.476;2022-09-17T07:54:27;12.30;79.15
49489;SHT31;35382;51.484;11.476;2022-09-17T07:56:08;12.47;76.34
49489;SHT31;35382;51.484;11.476;2022-09-17T07:57:50;12.44;76.25
49489;SHT31;35382;51.484;11.476;2022-09-17T07:59:31;12.47;76.30
49489;SHT31;35382;51.484;11.476;2022-09-17T08:01:13;12.64;78.68
49489;SHT31;35382;51.484;11.476;2022-09-17T08:02:56;12.60;77.67
49489;SHT31;35382;51.484;11.476;2022-09-17T08:04:37;12.41;75.46
49489;SHT31;35382;51.484;11.476;2022-09-17T08:06:20;12.38;77.32
49489;SHT31;35382;51.484;11.476;2022-09-17T08:08:01;12.44;78.03
49489;SHT31;35382;51.484;11.476;2022-09-17T08:09:43;12.38;77.25
49489;SHT31;35382;51.484;11.476;2022-09-17T08:11:27;12.31;77.21
49489;SHT31;35382;51.484;11.476;2022-09-17T08:13:08;12.21;79.02
49489;SHT31;35382;51.484;11.476;2022-09-17T08:14:49;12.17;79.27
49489;SHT31;35382;51.484;11.476;2022-09-17T08:16:30;12.21;78.30
49489;SHT31;35382;51.484;11.476;2022-09-17T08:18:11;12.17;78.22
49489;SHT31;35382;51.484;11.476;2022-09-17T08:19:52;12.12;78.19
49489;SHT31;35382;51.484;11.476;2022-09-17T08:21:34;12.17;77.79
49489;SHT31;35382;51.484;11.476;2022-09-17T08:23:15;12.18;78.76
49489;SHT31;35382;51.484;11.476;2022-09-17T08:24:56;12.16;77.82
49489;SHT31;35382;51.484;11.476;2022-09-17T08:26:37;12.10;77.85
49489;SHT31;35382;51.484;11.476;2022-09-17T08:28:20;12.28;79.37
49489;SHT31;35382;51.484;11.476;2022-09-17T08:30:01;12.23;81.14
49489;SHT31;35382;51.484;11.476;2022-09-17T08:31:42;12.17;81.67
49489;SHT31;35382;51.484;11.476;2022-09-17T08:33:23;12.28;80.94
49489;SHT31;35382;51.484;11.476;2022-09-17T08:35:04;12.42;81.50
49489;SHT31;35382;51.484;11.476;2022-09-17T08:36:45;12.72;81.46
49489;SHT31;35382;51.484;11.476;2022-09-17T08:38:31;12.71;80.21
49489;SHT31;35382;51.484;11.476;2022-09-17T08:40:18;12.94;82.41
49489;SHT31;35382;51.484;11.476;2022-09-17T08:43:00;12.99;79.18
49489;SHT31;35382;51.484;11.476;2022-09-17T08:44:29;13.76;79.36
49489;SHT31;35382;51.484;11.476;2022-09-17T08:46:12;13.66;79.31
49489;SHT31;35382;51.484;11.476;2022-09-17T08:48:00;13.14;78.23
49489;SHT31;35382;51.484;11.476;2022-09-17T08:49:54;13.50;79.37
49489;SHT31;35382;51.484;11.476;2022-09-17T08:53:40;13.82;77.47
49489;SHT31;35382;51.484;11.476;2022-09-17T08:55:31;13.59;77.31
49489;SHT31;35382;51.484;11.476;2022-09-17T09:00:03;13.26;77.93
49489;SHT31;35382;51.484;11.476;2022-09-17T09:01:58;12.75;77.44
49489;SHT31;35382;51.484;11.476;2022-09-17T09:05:45;12.92;75.88
49489;SHT31;35382;51.484;11.476;2022-09-17T09:07:30;12.99;75.52
49489;SHT31;35382;51.484;11.476;2022-09-17T09:09:16;13.09;74.79
49489;SHT31;35382;51.484;11.476;2022-09-17T09:11:00;13.08;75.15
49489;SHT31;35382;51.484;11.476;2022-09-17T09:12:43;12.99;76.22
49489;SHT31;35382;51.484;11.476;2022-09-17T09:14:31;13.15;79.01
49489;SHT31;35382;51.484;11.476;2022-09-17T09:16:24;12.91;80.12
49489;SHT31;35382;51.484;11.476;2022-09-17T09:18:24;13.05;78.96
49489;SHT31;35382;51.484;11.476;2022-09-17T09:20:13;12.74;79.30
49489;SHT31;35382;51.484;11.476;2022-09-17T09:22:01;12.61;77.74
49489;SHT31;35382;51.484;11.476;2022-09-17T09:25:51;13.55;77.20
49489;SHT31;35382;51.484;11.476;2022-09-17T09:27:40;13.99;75.10
49489;SHT31;35382;51.484;11.476;2022-09-17T09:29:37;14.07;71.77
49489;SHT31;35382;51.484;11.476;2022-09-17T09:31:58;14.56;69.90
49489;SHT31;35382;51.484;11.476;2022-09-17T09:33:43;15.01;66.09
49489;SHT31;35382;51.484;11.476;2022-09-17T09:35:25;14.98;67.14
49489;SHT31;35382;51.484;11.476;2022-09-17T09:37:23;14.81;67.92
49489;SHT31;35382;51.484;11.476;2022-09-17T09:39:16;15.18;68.69
49489;SHT31;35382;51.484;11.476;2022-09-17T09:41:13;15.49;68.83
49489;SHT31;35382;51.484;11.476;2022-09-17T09:42:58;15.63;67.24
49489;SHT31;35382;51.484;11.476;2022-09-17T09:44:40;15.15;66.24
49489;SHT31;35382;51.484;11.476;2022-09-17T09:49:10;14.06;71.00
49489;SHT31;35382;51.484;11.476;2022-09-17T09:50:39;14.41;71.06
49489;SHT31;35382;51.484;11.476;2022-09-17T09:54:41;13.94;72.69
49489;SHT31;35382;51.484;11.476;2022-09-17T09:56:55;13.69;72.54
49489;SHT31;35382;51.484;11.476;2022-09-17T09:58:39;13.74;72.51
49489;SHT31;35382;51.484;11.476;2022-09-17T10:02:07;15.21;65.29
49489;SHT31;35382;51.484;11.476;2022-09-17T10:03:51;15.48;61.53
49489;SHT31;35382;51.484;11.476;2022-09-17T10:05:32;15.38;60.44
49489;SHT31;35382;51.484;11.476;2022-09-17T10:07:13;14.34;64.84
49489;SHT31;35382;51.484;11.476;2022-09-17T10:10:37;15.85;61.49
49489;SHT31;35382;51.484;11.476;2022-09-17T10:12:32;15.17;61.28
49489;SHT31;35382;51.484;11.476;2022-09-17T10:14:20;14.26;63.21
49489;SHT31;35382;51.484;11.476;2022-09-17T10:16:24;15.04;64.18
49489;SHT31;35382;51.484;11.476;2022-09-17T10:18:16;14.56;63.63
49489;SHT31;35382;51.484;11.476;2022-09-17T10:21:51;14.63;61.07
49489;SHT31;35382;51.484;11.476;2022-09-17T10:23:35;14.56;61.84
49489;SHT31;35382;51.484;11.476;2022-09-17T10:25:31;14.31;61.51
49489;SHT31;35382;51.484;11.476;2022-09-17T10:27:17;14.61;61.01
49489;SHT31;35382;51.484;11.476;2022-09-17T10:29:02;14.59;61.49
49489;SHT31;35382;51.484;11.476;2022-09-17T10:30:58;14.28;60.30
49489;SHT31;35382;51.484;11.476;2022-09-17T10:32:39;14.17;60.17
49489;SHT31;35382;51.484;11.476;2022-09-17T10:34:28;14.06;59.48
49489;SHT31;35382;51.484;11.476;2022-09-17T10:36:12;14.05;58.81
49489;SHT31;35382;51.484;11.476;2022-09-17T10:37:54;13.99;60.26
49489;SHT31;35382;51.484;11.476;2022-09-17T10:39:36;14.37;61.24
49489;SHT31;35382;51.484;11.476;2022-09-17T10:41:23;15.15;54.75
49489;SHT31;35382;51.484;11.476;2022-09-17T10:43:21;16.26;56.14
49489;SHT31;35382;51.484;11.476;2022-09-17T10:45:02;16.17;55.51
49489;SHT31;35382;51.484;11.476;2022-09-17T10:46:43;16.19;55.04
49489;SHT31;35382;51.484;11.476;2022-09-17T10:48:27;15.51;53.98
49489;SHT31;35382;51.484;11.476;2022-09-17T10:50:18;15.41;52.06
49489;SHT31;35382;51.484;11.476;2022-09-17T10:52:26;15.48;52.60
49489;SHT31;35382;51.484;11.476;2022-09-17T10:54:14;15.34;52.41
49489;SHT31;35382;51.484;11.476;2022-09-17T10:56:22;14.81;52.17
49489;SHT31;35382;51.484;11.476;2022-09-17T11:00:03;14.26;53.38
49489;SHT31;35382;51.484;11.476;2022-09-17T11:05:47;14.13;50.44
49489;SHT31;35382;51.484;11.476;2022-09-17T11:08:05;13.94;52.20
49489;SHT31;35382;51.484;11.476;2022-09-17T11:12:10;13.58;56.69
49489;SHT31;35382;51.484;11.476;2022-09-17T11:16:39;15.02;56.84
49489;SHT31;35382;51.484;11.476;2022-09-17T11:18:33;15.25;54.51
49489;SHT31;35382;51.484;11.476;2022-09-17T11:22:16;14.67;54.29
49489;SHT31;35382;51.484;11.476;2022-09-17T11:24:34;14.14;53.55
49489;SHT31;35382;51.484;11.476;2022-09-17T11:26:46;13.93;55.24
49489;SHT31;35382;51.484;11.476;2022-09-17T11:28:49;13.70;55.87
49489;SHT31;35382;51.484;11.476;2022-09-17T11:31:00;13.65;57.48
49489;SHT31;35382;51.484;11.476;2022-09-17T11:35:20;15.14;57.60
49489;SHT31;35382;51.484;11.476;2022-09-17T11:37:09;15.58;57.88
49489;SHT31;35382;51.484;11.476;2022-09-17T11:38:54;15.62;55.88
49489;SHT31;35382;51.484;11.476;2022-09-17T11:40:49;15.58;56.29
49489;SHT31;35382;51.484;11.476;2022-09-17T11:42:55;15.87;54.48
49489;SHT31;35382;51.484;11.476;2022-09-17T11:44:45;16.12;57.00
49489;SHT31;35382;51.484;11.476;2022-09-17T11:46:33;15.32;55.73
49489;SHT31;35382;51.484;11.476;2022-09-17T11:48:19;14.96;56.99
49489;SHT31;35382;51.484;11.476;2022-09-17T11:50:15;15.12;57.56
49489;SHT31;35382;51.484;11.476;2022-09-17T11:52:04;15.29;57.49
49489;SHT31;35382;51.484;11.476;2022-09-17T11:54:36;15.35;56.12
49489;SHT31;35382;51.484;11.476;2022-09-17T11:55:55;15.70;56.64
49489;SHT31;35382;51.484;11.476;2022-09-17T11:57:39;15.15;56.67
49489;SHT31;35382;51.484;11.476;2022-09-17T11:59:37;15.83;56.93